createdAt,value
2022-12-11T00:00:52.390Z,168.90
2022-12-11T00:03:40.143Z,168.20
2022-12-11T00:06:09.041Z,109.05
2022-12-11T00:08:37.144Z,91.10
2022-12-11T00:11:04.154Z,135.48
2022-12-11T00:13:31.436Z,230.80
2022-12-11T00:15:59.504Z,205.93
2022-12-11T00:18:26.985Z,231.82
2022-12-11T00:20:54.009Z,187.85
2022-12-11T00:23:21.504Z,290.48
2022-12-11T00:25:48.606Z,155.90
2022-12-11T00:28:22.620Z,297.13
2022-12-11T00:30:50.089Z,220.88
2022-12-11T00:33:18.024Z,180.48
2022-12-11T00:35:47.518Z,111.18
2022-12-11T00:38:17.215Z,91.45
2022-12-11T00:40:44.757Z,132.13
2022-12-11T00:43:13.346Z,148.27
2022-12-11T00:45:46.856Z,167.18
2022-12-11T00:48:14.506Z,213.43
2022-12-11T00:50:41.598Z,199.05
2022-12-11T00:53:09.338Z,178.10
2022-12-11T00:55:38.643Z,205.20
2022-12-11T00:58:07.650Z,175.00
2022-12-11T01:00:34.618Z,131.93
2022-12-11T01:03:02.244Z,185.48
2022-12-11T01:05:31.537Z,112.00
2022-12-11T01:07:59.213Z,95.07
2022-12-11T01:10:27.195Z,73.10
2022-12-11T01:13:06.967Z,186.63
2022-12-11T01:15:43.550Z,90.75
2022-12-11T01:18:14.113Z,63.67
2022-12-11T01:20:42.752Z,85.15
2022-12-11T01:23:13.106Z,75.60
2022-12-11T01:25:40.904Z,150.90
2022-12-11T01:28:08.973Z,101.55
2022-12-11T01:30:36.692Z,68.90
2022-12-11T01:33:04.663Z,58.92
2022-12-11T01:35:31.649Z,51.88
2022-12-11T01:37:59.439Z,117.20
2022-12-11T01:40:26.463Z,58.90
2022-12-11T01:42:53.784Z,60.20
2022-12-11T01:45:29.726Z,29.63
2022-12-11T01:48:11.031Z,26.27
2022-12-11T01:51:09.543Z,98.85
2022-12-11T01:53:45.934Z,153.00
2022-12-11T01:56:13.353Z,34.95
2022-12-11T01:58:51.627Z,101.53
2022-12-11T02:01:35.878Z,142.93
2022-12-11T02:04:04.498Z,77.45
2022-12-11T02:06:51.175Z,105.88
2022-12-11T02:09:31.627Z,149.25
2022-12-11T02:12:07.826Z,57.85
2022-12-11T02:14:53.409Z,51.78
2022-12-11T02:17:51.248Z,76.85
2022-12-11T02:20:38.191Z,20.38
2022-12-11T02:23:44.178Z,56.55
2022-12-11T02:26:42.989Z,24.75
2022-12-11T02:29:18.392Z,40.03
2022-12-11T02:34:44.858Z,54.08
2022-12-11T02:37:21.973Z,28.95
2022-12-11T02:39:54.887Z,33.50
2022-12-11T02:42:26.266Z,38.58
2022-12-11T02:44:57.240Z,23.17
2022-12-11T02:47:28.432Z,90.13
2022-12-11T02:49:58.300Z,114.10
2022-12-11T02:52:27.800Z,66.25
2022-12-11T02:54:59.760Z,57.17
2022-12-11T02:57:42.527Z,68.00
2022-12-11T03:00:10.695Z,161.93
2022-12-11T03:02:40.499Z,139.30
2022-12-11T03:05:08.794Z,105.47
2022-12-11T03:07:40.683Z,50.92
2022-12-11T03:10:10.497Z,48.13
2022-12-11T03:12:43.117Z,67.25
2022-12-11T03:15:17.307Z,87.55
2022-12-11T03:18:08.458Z,124.65
2022-12-11T03:20:44.105Z,207.50
2022-12-11T03:24:03.868Z,144.65
2022-12-11T03:26:36.488Z,178.05
2022-12-11T03:29:19.957Z,263.55
2022-12-11T03:31:57.652Z,164.00
2022-12-11T03:34:34.092Z,115.50
2022-12-11T03:37:03.165Z,81.32
2022-12-11T03:39:36.329Z,61.50
2022-12-11T03:42:08.569Z,66.78
2022-12-11T03:44:37.008Z,69.70
2022-12-11T03:47:08.143Z,137.18
2022-12-11T03:49:40.794Z,61.55
2022-12-11T03:52:09.734Z,77.25
2022-12-11T03:54:39.604Z,89.18
2022-12-11T03:57:09.513Z,49.75
2022-12-11T03:59:36.924Z,111.20
2022-12-11T04:02:11.167Z,104.85
2022-12-11T04:04:39.669Z,178.70
2022-12-11T04:07:07.764Z,210.18
2022-12-11T04:09:35.771Z,127.78
2022-12-11T04:12:02.935Z,109.05
2022-12-11T04:14:49.640Z,160.27
2022-12-11T04:17:36.662Z,196.30
2022-12-11T04:20:23.708Z,186.57
2022-12-11T04:23:09.595Z,181.27
2022-12-11T04:25:37.273Z,153.45
2022-12-11T04:28:04.220Z,210.65
2022-12-11T04:30:34.293Z,226.73
2022-12-11T04:33:01.570Z,173.88
2022-12-11T04:35:29.582Z,155.02
2022-12-11T04:37:56.617Z,88.13
2022-12-11T04:40:24.580Z,130.20
2022-12-11T04:42:51.700Z,97.00
2022-12-11T04:45:21.924Z,171.73
2022-12-11T04:47:48.990Z,192.50
2022-12-11T04:50:16.866Z,257.15
2022-12-11T04:52:44.056Z,184.88
2022-12-11T04:55:12.759Z,317.30
2022-12-11T04:57:40.149Z,167.73
2022-12-11T05:00:11.079Z,98.13
2022-12-11T05:02:39.083Z,159.00
2022-12-11T05:05:11.021Z,99.78
2022-12-11T05:07:38.761Z,54.63
2022-12-11T05:10:11.138Z,143.05
2022-12-11T05:12:39.329Z,76.75
2022-12-11T05:15:11.106Z,43.08
2022-12-11T05:17:43.181Z,89.43
2022-12-11T05:20:11.149Z,44.03
2022-12-11T05:22:38.971Z,40.25
2022-12-11T05:25:07.147Z,81.32
2022-12-11T05:27:38.817Z,101.57
2022-12-11T05:30:08.541Z,71.50
2022-12-11T05:32:35.950Z,52.38
2022-12-11T05:35:05.783Z,50.42
2022-12-11T05:37:34.660Z,83.90
2022-12-11T05:40:19.658Z,94.45
2022-12-11T05:42:46.906Z,70.97
2022-12-11T05:45:14.795Z,93.20
2022-12-11T05:47:42.981Z,95.47
2022-12-11T05:50:11.082Z,63.28
2022-12-11T05:52:39.022Z,96.65
2022-12-11T05:55:10.223Z,112.10
2022-12-11T05:57:39.516Z,69.40
2022-12-11T06:00:10.396Z,57.90
2022-12-11T06:02:37.554Z,108.50
2022-12-11T06:05:10.506Z,111.80
2022-12-11T06:07:38.003Z,96.40
2022-12-11T06:10:07.928Z,97.13
2022-12-11T06:15:17.821Z,91.35
2022-12-11T06:17:44.842Z,115.55
2022-12-11T06:20:13.625Z,97.45
2022-12-11T06:22:41.391Z,100.95
2022-12-11T06:25:10.824Z,84.32
2022-12-11T06:33:04.154Z,70.68
2022-12-11T06:35:36.149Z,89.72
2022-12-11T06:38:11.205Z,100.72
2022-12-11T06:40:54.660Z,101.75
2022-12-11T06:43:21.960Z,92.45
2022-12-11T06:45:49.352Z,69.45
2022-12-11T06:48:16.661Z,90.05
2022-12-11T06:50:44.489Z,94.45
2022-12-11T06:53:18.241Z,80.13
2022-12-11T06:55:48.687Z,104.63
2022-12-11T06:58:16.931Z,113.88
2022-12-11T07:00:44.373Z,94.72
2022-12-11T07:03:11.880Z,70.60
2022-12-11T07:05:41.468Z,92.55
2022-12-11T07:08:10.166Z,109.60
2022-12-11T07:10:40.607Z,58.28
2022-12-11T07:13:07.654Z,64.32
2022-12-11T07:15:40.522Z,58.55
2022-12-11T07:18:08.957Z,76.53
2022-12-11T07:20:36.554Z,71.47
2022-12-11T07:23:04.021Z,83.22
2022-12-11T07:25:32.344Z,75.93
2022-12-11T07:27:59.279Z,80.82
2022-12-11T07:30:28.291Z,77.78
2022-12-11T07:32:55.363Z,71.72
2022-12-11T07:35:22.851Z,55.10
2022-12-11T07:37:51.122Z,70.68
2022-12-11T07:40:18.601Z,62.97
2022-12-11T07:42:50.014Z,67.68
2022-12-11T07:45:18.048Z,64.10
2022-12-11T07:47:46.423Z,57.13
2022-12-11T07:50:14.681Z,58.20
2022-12-11T07:52:41.892Z,59.03
2022-12-11T07:55:26.639Z,55.35
2022-12-11T07:57:55.313Z,53.85
2022-12-11T08:00:26.148Z,53.60
2022-12-11T08:02:53.859Z,57.08
2022-12-11T08:05:20.895Z,48.05
2022-12-11T08:10:35.546Z,44.65
2022-12-11T08:13:03.371Z,42.80
2022-12-11T08:15:30.606Z,49.33
2022-12-11T08:17:58.513Z,36.72
2022-12-11T08:20:25.913Z,40.55
2022-12-11T08:22:59.140Z,43.92
2022-12-11T08:25:26.659Z,41.70
2022-12-11T08:28:09.149Z,30.98
2022-12-11T08:30:44.516Z,41.90
2022-12-11T08:33:11.543Z,32.85
2022-12-11T08:35:41.811Z,36.72
2022-12-11T08:38:08.919Z,35.25
2022-12-11T08:40:36.694Z,34.28
2022-12-11T08:43:05.386Z,41.45
2022-12-11T08:45:34.243Z,33.08
2022-12-11T08:48:04.981Z,33.72
2022-12-11T08:50:32.346Z,32.63
2022-12-11T08:52:59.450Z,36.05
2022-12-11T08:55:27.150Z,34.83
2022-12-11T08:57:55.467Z,31.90
2022-12-11T09:00:25.705Z,36.55
2022-12-11T09:02:55.648Z,28.33
2022-12-11T09:05:23.336Z,32.35
2022-12-11T09:07:50.429Z,31.80
2022-12-11T09:10:18.186Z,29.58
2022-12-11T09:12:45.229Z,33.58
2022-12-11T09:15:13.017Z,35.20
2022-12-11T09:17:40.287Z,28.38
2022-12-11T09:20:08.297Z,28.60
2022-12-11T09:22:35.274Z,27.00
2022-12-11T09:25:07.741Z,30.48
2022-12-11T09:27:35.652Z,30.73
2022-12-11T09:30:03.398Z,28.67
2022-12-11T09:32:30.579Z,26.50
2022-12-11T09:34:58.065Z,32.05
2022-12-11T09:37:25.438Z,28.08
2022-12-11T09:39:55.415Z,23.05
2022-12-11T09:42:59.817Z,26.75
2022-12-11T09:46:12.059Z,25.58
2022-12-11T09:48:45.692Z,21.50
2022-12-11T09:51:45.280Z,24.90
2022-12-11T09:54:18.406Z,26.38
2022-12-11T09:56:55.747Z,22.08
2022-12-11T09:59:38.331Z,23.85
2022-12-11T10:02:56.561Z,25.25
2022-12-11T10:06:17.492Z,29.42
2022-12-11T10:09:12.612Z,22.90
2022-12-11T10:12:01.764Z,21.92
2022-12-11T10:14:52.377Z,24.77
2022-12-11T10:17:33.452Z,28.15
2022-12-11T10:20:26.495Z,28.52
2022-12-11T10:23:09.129Z,22.25
2022-12-11T10:25:45.193Z,33.28
2022-12-11T10:28:20.391Z,22.55
2022-12-11T10:31:04.426Z,32.63
2022-12-11T10:33:41.340Z,28.65
2022-12-11T10:36:10.784Z,28.08
2022-12-11T10:38:57.948Z,21.38
2022-12-11T10:41:42.242Z,32.30
2022-12-11T10:44:29.050Z,25.40
2022-12-11T10:47:11.660Z,19.88
2022-12-11T10:49:46.302Z,26.33
2022-12-11T10:55:01.359Z,24.77
2022-12-11T10:57:35.585Z,29.10
2022-12-11T11:00:06.847Z,25.08
2022-12-11T11:02:43.638Z,38.03
2022-12-11T11:05:28.775Z,20.42
2022-12-11T11:08:28.097Z,22.00
2022-12-11T11:11:00.684Z,23.73
2022-12-11T11:13:31.551Z,23.95
2022-12-11T11:16:11.904Z,21.48
2022-12-11T11:18:46.305Z,20.52
2022-12-11T11:21:19.372Z,20.27
2022-12-11T11:23:53.621Z,14.02
2022-12-11T11:26:23.161Z,21.00
2022-12-11T11:28:55.301Z,25.50
2022-12-11T11:31:35.581Z,24.95
2022-12-11T11:34:16.505Z,23.48
2022-12-11T11:39:36.993Z,27.38
2022-12-11T11:42:21.257Z,27.10
2022-12-11T11:45:07.168Z,20.30
2022-12-11T11:47:44.581Z,26.08
2022-12-11T11:50:27.325Z,23.27
2022-12-11T11:53:13.092Z,24.23
2022-12-11T11:56:02.759Z,27.27
2022-12-11T11:58:42.872Z,21.55
2022-12-11T12:01:19.892Z,25.73
2022-12-11T12:03:48.685Z,25.27
2022-12-11T12:06:25.955Z,25.77
2022-12-11T12:09:01.592Z,25.25
2022-12-11T12:11:39.136Z,26.23
2022-12-11T12:14:51.775Z,26.27
2022-12-11T12:17:23.347Z,21.63
2022-12-11T12:19:56.567Z,20.27
2022-12-11T12:22:49.740Z,23.55
2022-12-11T12:25:41.227Z,26.42
2022-12-11T12:28:20.653Z,23.10
2022-12-11T12:31:30.096Z,23.38
2022-12-11T12:34:18.114Z,20.75
2022-12-11T12:37:14.119Z,25.40
2022-12-11T12:44:11.352Z,25.40
2022-12-11T12:46:54.917Z,24.67
2022-12-11T12:49:40.333Z,24.58
2022-12-11T12:52:27.128Z,27.15
2022-12-11T12:55:22.263Z,20.35
2022-12-11T12:58:07.880Z,23.73
2022-12-11T13:00:45.217Z,22.88
2022-12-11T13:03:30.458Z,20.05
2022-12-11T13:06:02.088Z,22.17
2022-12-11T13:08:37.922Z,24.48
2022-12-11T13:11:12.133Z,17.77
2022-12-11T13:13:51.610Z,21.63
2022-12-11T13:16:27.285Z,23.10
2022-12-11T13:24:28.504Z,19.27
2022-12-11T13:26:57.212Z,21.27
2022-12-11T13:30:00.918Z,19.65
2022-12-11T13:33:19.365Z,25.27
2022-12-11T13:35:53.937Z,23.48
2022-12-11T13:38:29.893Z,23.88
2022-12-11T13:41:02.626Z,20.08
2022-12-11T13:43:39.045Z,20.10
2022-12-11T13:49:01.116Z,18.83
2022-12-11T13:51:32.700Z,24.38
2022-12-11T13:54:17.961Z,21.95
2022-12-11T13:57:00.564Z,23.27
2022-12-11T13:59:36.383Z,22.20
2022-12-11T14:02:43.001Z,25.33
2022-12-11T14:08:28.883Z,20.10
2022-12-11T14:11:05.033Z,24.90
2022-12-11T14:17:07.050Z,22.90
2022-12-11T14:20:01.654Z,25.55
2022-12-11T14:22:32.351Z,23.73
2022-12-11T14:25:03.718Z,22.65
2022-12-11T14:27:34.012Z,26.50
2022-12-11T14:30:11.287Z,26.85
2022-12-11T14:32:46.101Z,23.20
2022-12-11T14:35:39.139Z,25.15
2022-12-11T14:38:18.203Z,41.30
2022-12-11T14:40:52.568Z,28.42
2022-12-11T14:43:35.102Z,30.73
2022-12-11T14:46:18.195Z,21.30
2022-12-11T14:48:59.141Z,31.83
2022-12-11T14:51:40.690Z,33.67
2022-12-11T14:54:20.382Z,37.15
2022-12-11T14:56:49.813Z,38.05
2022-12-11T14:59:31.464Z,35.92
2022-12-11T15:02:21.264Z,21.40
2022-12-11T15:05:07.678Z,26.67
2022-12-11T15:07:43.876Z,46.33
2022-12-11T15:10:42.579Z,40.42
2022-12-11T15:13:11.461Z,42.47
2022-12-11T15:15:46.490Z,39.50
2022-12-11T15:18:23.395Z,40.22
2022-12-11T15:21:03.724Z,32.30
2022-12-11T15:23:31.426Z,36.25
2022-12-11T15:28:48.829Z,36.05
2022-12-11T15:31:34.760Z,30.58
2022-12-11T15:34:03.272Z,34.60
2022-12-11T15:36:35.827Z,31.20
2022-12-11T15:39:09.165Z,34.63
2022-12-11T15:41:42.074Z,39.35
2022-12-11T15:44:20.296Z,37.38
2022-12-11T15:47:17.953Z,27.33
2022-12-11T15:49:46.340Z,40.65
2022-12-11T15:52:17.666Z,55.13
2022-12-11T15:54:46.035Z,50.88
2022-12-11T15:57:21.268Z,43.08
2022-12-11T15:59:54.134Z,48.03
2022-12-11T16:05:38.570Z,43.83
2022-12-11T16:08:06.553Z,23.73
2022-12-11T16:10:33.824Z,36.78
2022-12-11T16:13:37.867Z,28.27
2022-12-11T16:16:08.909Z,33.15
2022-12-11T16:18:38.175Z,27.95
2022-12-11T16:21:06.663Z,31.52
2022-12-11T16:23:34.137Z,32.63
2022-12-11T16:26:07.226Z,37.97
2022-12-11T16:28:35.749Z,33.40
2022-12-11T16:31:03.092Z,34.10
2022-12-11T16:33:41.632Z,33.72
2022-12-11T16:36:19.702Z,36.25
2022-12-11T16:38:54.205Z,33.10
2022-12-11T16:41:25.776Z,42.50
2022-12-11T16:43:57.127Z,37.10
2022-12-11T16:46:24.655Z,38.58
2022-12-11T16:48:52.404Z,38.00
2022-12-11T16:51:19.650Z,32.65
2022-12-11T16:53:57.317Z,35.17
2022-12-11T16:56:25.161Z,37.45
2022-12-11T16:58:53.679Z,37.63
2022-12-11T17:01:20.859Z,33.78
2022-12-11T17:03:52.764Z,41.28
2022-12-11T17:06:28.164Z,42.05
2022-12-11T17:09:02.016Z,36.45
2022-12-11T17:11:29.188Z,34.63
2022-12-11T17:14:00.566Z,83.40
2022-12-11T17:16:30.538Z,67.85
2022-12-11T17:19:00.852Z,43.42
2022-12-11T17:21:53.902Z,35.63
2022-12-11T17:24:20.552Z,39.88
2022-12-11T17:26:47.642Z,35.47
2022-12-11T17:29:15.138Z,41.63
2022-12-11T17:31:42.594Z,44.15
2022-12-11T17:34:12.417Z,40.40
2022-12-11T17:36:39.533Z,35.92
2022-12-11T17:39:14.055Z,33.33
2022-12-11T17:41:41.389Z,30.35
2022-12-11T17:44:15.211Z,39.50
2022-12-11T17:46:43.230Z,43.00
2022-12-11T17:49:15.089Z,40.75
2022-12-11T17:51:42.396Z,43.15
2022-12-11T17:54:10.153Z,36.85
2022-12-11T17:56:40.753Z,42.17
2022-12-11T17:59:18.938Z,41.33
2022-12-11T18:01:55.298Z,43.25
2022-12-11T18:04:43.115Z,46.33
2022-12-11T18:07:15.918Z,56.65
2022-12-11T18:09:44.326Z,55.45
2022-12-11T18:12:14.135Z,60.33
2022-12-11T18:14:45.291Z,46.08
2022-12-11T18:18:05.855Z,60.70
2022-12-11T18:21:08.449Z,63.92
2022-12-11T18:59:37.319Z,29.50
2022-12-11T19:06:55.548Z,22.08
2022-12-11T19:17:14.668Z,14.18
2022-12-11T19:19:58.291Z,20.00
2022-12-11T19:22:25.801Z,14.73
2022-12-11T19:24:59.456Z,30.05
2022-12-11T19:27:37.777Z,26.45
2022-12-11T19:30:22.928Z,26.48
2022-12-11T19:32:59.276Z,20.70
2022-12-11T19:35:28.888Z,30.98
2022-12-11T19:37:58.704Z,21.10
2022-12-11T19:40:30.941Z,20.45
2022-12-11T19:42:59.799Z,16.63
2022-12-11T19:45:27.350Z,24.23
2022-12-11T19:47:57.865Z,30.45
2022-12-11T19:50:39.932Z,17.15
2022-12-11T19:53:23.926Z,16.30
2022-12-11T19:55:59.302Z,21.35
2022-12-11T19:58:50.574Z,17.38
2022-12-11T20:01:24.946Z,21.40
2022-12-11T20:04:20.524Z,19.60
2022-12-11T20:06:49.647Z,23.35
2022-12-11T20:09:37.008Z,17.23
2022-12-11T20:12:28.105Z,21.13
2022-12-11T20:14:56.125Z,14.90
2022-12-11T20:17:29.780Z,13.40
2022-12-11T20:19:56.996Z,13.95
2022-12-11T20:22:27.786Z,17.70
2022-12-11T20:24:55.895Z,18.63
2022-12-11T20:27:26.378Z,17.15
2022-12-11T20:29:53.881Z,16.35
2022-12-11T20:32:25.253Z,11.45
2022-12-11T20:34:59.094Z,15.05
2022-12-11T20:37:27.136Z,15.00
2022-12-11T20:39:54.873Z,12.45
2022-12-11T20:42:23.114Z,16.50
2022-12-11T20:44:53.269Z,18.92
2022-12-11T20:47:21.180Z,17.17
2022-12-11T20:49:59.310Z,17.75
2022-12-11T20:52:52.899Z,15.35
2022-12-11T20:55:38.577Z,11.52
2022-12-11T20:58:06.079Z,15.27
2022-12-11T21:00:36.309Z,15.07
2022-12-11T21:03:04.343Z,13.82
2022-12-11T21:05:44.185Z,16.15
2022-12-11T21:08:12.931Z,15.00
2022-12-11T21:10:45.038Z,9.95
2022-12-11T21:20:28.110Z,10.63
2022-12-11T21:24:03.243Z,11.35
2022-12-11T21:26:34.026Z,7.47
2022-12-11T21:29:48.656Z,15.52
2022-12-11T21:32:31.499Z,14.43
2022-12-11T21:35:17.016Z,15.35
2022-12-11T21:41:56.017Z,14.38
2022-12-11T21:47:31.449Z,11.73
2022-12-11T21:50:07.546Z,7.32
2022-12-11T21:52:37.428Z,10.48
2022-12-11T21:55:06.301Z,11.27
2022-12-11T22:00:02.119Z,10.85
2022-12-11T22:02:42.185Z,7.28
2022-12-11T22:05:10.277Z,10.00
2022-12-11T22:07:43.452Z,12.75
2022-12-11T22:10:17.007Z,7.88
2022-12-11T22:12:48.779Z,9.90
2022-12-11T22:15:22.571Z,8.15
2022-12-11T22:17:52.659Z,8.60
2022-12-11T22:20:20.063Z,8.77
2022-12-11T22:22:47.573Z,8.18
2022-12-11T22:25:14.966Z,8.13
2022-12-11T22:27:42.524Z,6.03
2022-12-11T22:30:10.274Z,10.05
2022-12-11T22:32:37.631Z,5.05
2022-12-11T22:35:05.077Z,6.50
2022-12-11T22:37:34.888Z,8.90
2022-12-11T22:42:29.349Z,8.35
2022-12-11T22:45:00.582Z,8.35
2022-12-11T22:47:29.250Z,5.63
2022-12-11T22:49:56.357Z,8.80
2022-12-11T22:52:25.602Z,7.40
2022-12-11T22:54:52.941Z,7.80
2022-12-11T22:57:20.595Z,8.65
2022-12-11T22:59:50.199Z,6.22
2022-12-11T23:02:19.131Z,6.90
2022-12-11T23:04:46.543Z,7.13
2022-12-11T23:07:20.729Z,5.70
2022-12-11T23:09:47.875Z,5.22
2022-12-11T23:12:16.260Z,6.45
2022-12-11T23:14:43.960Z,8.80
2022-12-11T23:17:12.730Z,4.38
2022-12-11T23:19:40.167Z,6.60
2022-12-11T23:22:08.928Z,6.90
2022-12-11T23:24:35.870Z,7.47
2022-12-11T23:27:03.573Z,8.18
2022-12-11T23:29:31.327Z,7.18
2022-12-11T23:31:59.541Z,5.90
2022-12-11T23:34:26.846Z,7.68
2022-12-11T23:36:58.184Z,9.30
2022-12-11T23:39:26.500Z,5.10
2022-12-11T23:42:03.008Z,6.63
2022-12-11T23:44:30.060Z,7.20
2022-12-11T23:46:58.171Z,8.63
2022-12-11T23:49:27.204Z,9.63
2022-12-11T23:51:59.958Z,10.32
2022-12-11T23:55:00.026Z,7.82
2022-12-11T23:57:43.714Z,7.05
